DLH2MC EFHK-EDDH
Flight info
| Callsign | DLH2MC |
|---|---|
| Flight time | 1h 48m |
| Altitude | 34000 |
| Route | NUNTO Y369 REKDO DCT KOSKA DCT GIMRU T503 MICOS/N0430F280 N850 BOGMU BOGMU3S |
| Aircraft | A320/M-SDE3FGHIRWY/LB1 |
Departure
| Time | 2026-04-23 18:02 |
|---|---|
| Airport | Helsinki Vantaa Airport (EFHK) |
Arrival
| Time | 2026-04-23 19:50 |
|---|---|
| Airport | Hamburg Helmut Schmidt Airport (EDDH) |
| Time | Latitude | Longitude | Altitude | Speed | Heading |
|---|---|---|---|---|---|
| 2026-04-23 17:16 | 60.31672 | 24.97206 | 167 ft | 0 kts | 242° |
| 2026-04-23 17:46 | 60.31679 | 24.97236 | 166 ft | 3 kts | 242° |
| 2026-04-23 17:46 | 60.31689 | 24.97272 | 166 ft | 3 kts | 248° |
| 2026-04-23 17:46 | 60.31694 | 24.97309 | 166 ft | 3 kts | 276° |
| 2026-04-23 17:47 | 60.31691 | 24.97332 | 166 ft | 1 kts | 330° |
| 2026-04-23 17:47 | 60.31689 | 24.97334 | 166 ft | 0 kts | 333° |
| 2026-04-23 17:49 | 60.31717 | 24.97305 | 166 ft | 11 kts | 333° |
| 2026-04-23 17:49 | 60.31804 | 24.97214 | 166 ft | 15 kts | 332° |
| 2026-04-23 17:50 | 60.31900 | 24.97129 | 166 ft | 15 kts | 357° |
| 2026-04-23 17:50 | 60.32073 | 24.97088 | 166 ft | 14 kts | 334° |
| 2026-04-23 17:50 | 60.32165 | 24.96997 | 166 ft | 15 kts | 334° |
| 2026-04-23 17:51 | 60.32267 | 24.96893 | 164 ft | 17 kts | 329° |
| 2026-04-23 17:51 | 60.32294 | 24.96747 | 166 ft | 13 kts | 222° |
| 2026-04-23 17:51 | 60.32200 | 24.96555 | 168 ft | 7 kts | 228° |
| 2026-04-23 17:52 | 60.32166 | 24.96482 | 168 ft | 10 kts | 227° |
| 2026-04-23 17:52 | 60.31957 | 24.96020 | 169 ft | 27 kts | 228° |
| 2026-04-23 17:52 | 60.31829 | 24.95731 | 169 ft | 28 kts | 226° |
| 2026-04-23 17:53 | 60.31563 | 24.95153 | 170 ft | 29 kts | 226° |
| 2026-04-23 17:53 | 60.31424 | 24.94850 | 166 ft | 31 kts | 228° |
| 2026-04-23 17:53 | 60.31275 | 24.94517 | 159 ft | 33 kts | 227° |
| 2026-04-23 17:54 | 60.31119 | 24.94178 | 157 ft | 32 kts | 229° |
| 2026-04-23 17:54 | 60.30981 | 24.93874 | 159 ft | 19 kts | 229° |
| 2026-04-23 17:54 | 60.30987 | 24.93728 | 160 ft | 0 kts | 316° |
| 2026-04-23 17:57 | 60.30992 | 24.93718 | 160 ft | 6 kts | 316° |
| 2026-04-23 17:57 | 60.31059 | 24.93594 | 158 ft | 16 kts | 319° |
| 2026-04-23 17:57 | 60.31132 | 24.93643 | 158 ft | 0 kts | 49° |
| 2026-04-23 18:01 | 60.31135 | 24.93648 | 158 ft | 4 kts | 49° |
| 2026-04-23 18:01 | 60.31298 | 24.94010 | 160 ft | 71 kts | 47° |
| 2026-04-23 18:01 | 60.31774 | 24.95052 | 174 ft | 128 kts | 47° |
| 2026-04-23 18:01 | 60.32484 | 24.96608 | 201 ft | 171 kts | 47° |
| 2026-04-23 18:02 | 60.33292 | 24.98387 | 785 ft | 172 kts | 45° |
| 2026-04-23 18:02 | 60.34096 | 25.00162 | 1532 ft | 170 kts | 43° |
| 2026-04-23 18:02 | 60.34930 | 25.01994 | 1977 ft | 186 kts | 44° |
| 2026-04-23 18:02 | 60.35854 | 25.04021 | 2325 ft | 209 kts | 44° |
| 2026-04-23 18:03 | 60.36872 | 25.06272 | 2770 ft | 230 kts | 44° |
| 2026-04-23 18:03 | 60.37997 | 25.08750 | 3311 ft | 247 kts | 44° |
| 2026-04-23 18:03 | 60.39189 | 25.11274 | 4151 ft | 249 kts | 37° |
| 2026-04-23 18:03 | 60.40704 | 25.12773 | 5039 ft | 241 kts | 9° |
| 2026-04-23 18:04 | 60.42404 | 25.12982 | 5642 ft | 250 kts | 1° |
| 2026-04-23 18:04 | 60.44163 | 25.12993 | 6439 ft | 255 kts | 356° |
| 2026-04-23 18:04 | 60.45872 | 25.12074 | 7289 ft | 257 kts | 333° |
| 2026-04-23 18:04 | 60.47249 | 25.09776 | 8220 ft | 261 kts | 311° |
| 2026-04-23 18:05 | 60.48014 | 25.06389 | 9033 ft | 274 kts | 285° |
| 2026-04-23 18:05 | 60.47897 | 25.02469 | 9894 ft | 290 kts | 258° |
| 2026-04-23 18:05 | 60.46990 | 24.98645 | 10285 ft | 313 kts | 248° |
| 2026-04-23 18:05 | 60.45905 | 24.94624 | 10485 ft | 338 kts | 247° |
| 2026-04-23 18:06 | 60.44742 | 24.90425 | 10874 ft | 352 kts | 246° |
| 2026-04-23 18:06 | 60.43524 | 24.86082 | 11499 ft | 357 kts | 247° |
| 2026-04-23 18:06 | 60.42292 | 24.81687 | 12149 ft | 362 kts | 247° |
| 2026-04-23 18:06 | 60.41046 | 24.77219 | 12822 ft | 366 kts | 248° |
| 2026-04-23 18:07 | 60.39796 | 24.72699 | 13489 ft | 370 kts | 248° |
| 2026-04-23 18:07 | 60.38537 | 24.68115 | 14070 ft | 375 kts | 249° |
| 2026-04-23 18:07 | 60.37268 | 24.63483 | 14658 ft | 378 kts | 249° |
| 2026-04-23 18:07 | 60.35986 | 24.58808 | 15241 ft | 382 kts | 249° |
| 2026-04-23 18:08 | 60.35131 | 24.55692 | 15613 ft | 385 kts | 249° |
| 2026-04-23 18:08 | 60.33395 | 24.49390 | 16377 ft | 390 kts | 250° |
| 2026-04-23 18:08 | 60.32069 | 24.44602 | 16941 ft | 394 kts | 250° |
| 2026-04-23 18:08 | 60.30722 | 24.39759 | 17494 ft | 397 kts | 250° |
| 2026-04-23 18:09 | 60.29362 | 24.34886 | 18057 ft | 401 kts | 250° |
| 2026-04-23 18:09 | 60.27984 | 24.29964 | 18497 ft | 405 kts | 250° |
| 2026-04-23 18:09 | 60.26591 | 24.24997 | 18970 ft | 408 kts | 250° |
| 2026-04-23 18:09 | 60.25187 | 24.19997 | 19431 ft | 412 kts | 250° |
| 2026-04-23 18:10 | 60.23770 | 24.14966 | 19905 ft | 415 kts | 250° |
| 2026-04-23 18:10 | 60.22362 | 24.09969 | 20370 ft | 417 kts | 250° |
| 2026-04-23 18:10 | 60.20924 | 24.04878 | 20783 ft | 420 kts | 250° |
| 2026-04-23 18:10 | 60.19476 | 23.99755 | 21239 ft | 423 kts | 250° |
| 2026-04-23 18:11 | 60.18013 | 23.94592 | 21678 ft | 426 kts | 250° |
| 2026-04-23 18:11 | 60.16539 | 23.89400 | 22112 ft | 429 kts | 250° |
| 2026-04-23 18:11 | 60.15053 | 23.84175 | 22547 ft | 432 kts | 250° |
| 2026-04-23 18:11 | 60.13555 | 23.78917 | 22979 ft | 435 kts | 250° |
| 2026-04-23 18:12 | 60.12044 | 23.73632 | 23391 ft | 439 kts | 250° |
| 2026-04-23 18:12 | 60.10519 | 23.68314 | 23746 ft | 442 kts | 250° |
| 2026-04-23 18:12 | 60.08981 | 23.62964 | 24083 ft | 443 kts | 250° |
| 2026-04-23 18:12 | 60.07436 | 23.57602 | 24442 ft | 446 kts | 250° |
| 2026-04-23 18:13 | 60.05901 | 23.52287 | 24774 ft | 448 kts | 250° |
| 2026-04-23 18:13 | 60.04333 | 23.46877 | 25102 ft | 451 kts | 250° |
| 2026-04-23 18:13 | 60.02755 | 23.41441 | 25421 ft | 453 kts | 250° |
| 2026-04-23 18:13 | 60.01168 | 23.35985 | 25742 ft | 456 kts | 250° |
| 2026-04-23 18:14 | 59.99567 | 23.30497 | 26063 ft | 458 kts | 250° |
| 2026-04-23 18:14 | 59.97955 | 23.24986 | 26389 ft | 461 kts | 250° |
| 2026-04-23 18:14 | 59.96334 | 23.19450 | 26700 ft | 463 kts | 250° |
| 2026-04-23 18:14 | 59.94701 | 23.13889 | 27012 ft | 466 kts | 250° |
| 2026-04-23 18:15 | 59.93058 | 23.08303 | 27315 ft | 468 kts | 250° |
| 2026-04-23 18:15 | 59.91403 | 23.02696 | 27563 ft | 470 kts | 250° |
| 2026-04-23 18:15 | 59.89758 | 22.97145 | 27833 ft | 473 kts | 249° |
| 2026-04-23 18:15 | 59.88082 | 22.91497 | 28135 ft | 475 kts | 249° |
| 2026-04-23 18:16 | 59.86397 | 22.85828 | 28407 ft | 477 kts | 249° |
| 2026-04-23 18:16 | 59.84704 | 22.80144 | 28675 ft | 479 kts | 249° |
| 2026-04-23 18:16 | 59.82999 | 22.74434 | 28941 ft | 481 kts | 249° |
| 2026-04-23 18:17 | 59.79555 | 22.62959 | 29462 ft | 486 kts | 249° |
| 2026-04-23 18:17 | 59.77818 | 22.57202 | 29709 ft | 488 kts | 249° |
| 2026-04-23 18:17 | 59.76068 | 22.51416 | 29955 ft | 490 kts | 249° |
| 2026-04-23 18:17 | 59.74310 | 22.45618 | 30239 ft | 490 kts | 249° |
| 2026-04-23 18:18 | 59.72576 | 22.39911 | 30558 ft | 489 kts | 249° |
| 2026-04-23 18:18 | 59.70822 | 22.34146 | 30886 ft | 488 kts | 249° |
| 2026-04-23 18:18 | 59.69074 | 22.28404 | 31205 ft | 487 kts | 249° |
| 2026-04-23 18:18 | 59.67324 | 22.22665 | 31536 ft | 486 kts | 249° |
| 2026-04-23 18:19 | 59.65577 | 22.16953 | 31861 ft | 485 kts | 249° |
| 2026-04-23 18:19 | 59.63829 | 22.11248 | 32185 ft | 484 kts | 249° |
| 2026-04-23 18:19 | 59.62084 | 22.05562 | 32495 ft | 483 kts | 249° |
| 2026-04-23 18:19 | 59.60338 | 21.99896 | 32768 ft | 482 kts | 249° |
| 2026-04-23 18:20 | 59.58619 | 21.94347 | 33128 ft | 480 kts | 248° |
| 2026-04-23 18:20 | 59.56873 | 21.88732 | 33462 ft | 479 kts | 248° |
| 2026-04-23 18:20 | 59.55138 | 21.83152 | 33779 ft | 478 kts | 249° |
| 2026-04-23 18:20 | 59.53396 | 21.77560 | 33937 ft | 477 kts | 248° |
| 2026-04-23 18:21 | 59.49915 | 21.66479 | 33955 ft | 478 kts | 245° |
| 2026-04-23 18:21 | 59.45948 | 21.55826 | 33969 ft | 483 kts | 242° |
| 2026-04-23 18:22 | 59.41871 | 21.45410 | 33954 ft | 484 kts | 242° |
| 2026-04-23 18:22 | 59.37743 | 21.34963 | 33973 ft | 484 kts | 242° |
| 2026-04-23 18:23 | 59.31595 | 21.19265 | 33967 ft | 484 kts | 242° |
| 2026-04-23 18:24 | 59.25466 | 21.03688 | 33956 ft | 484 kts | 242° |
| 2026-04-23 18:25 | 59.19289 | 20.88113 | 33995 ft | 484 kts | 242° |
| 2026-04-23 18:25 | 59.15163 | 20.77752 | 33994 ft | 484 kts | 242° |
| 2026-04-23 18:26 | 59.11029 | 20.67423 | 33998 ft | 483 kts | 241° |
| 2026-04-23 18:26 | 59.06917 | 20.57219 | 33987 ft | 483 kts | 241° |
| 2026-04-23 18:27 | 59.02756 | 20.46930 | 33983 ft | 484 kts | 241° |
| 2026-04-23 18:27 | 58.98590 | 20.36676 | 33988 ft | 484 kts | 241° |
| 2026-04-23 18:28 | 58.94417 | 20.26442 | 33987 ft | 484 kts | 241° |
| 2026-04-23 18:28 | 58.90240 | 20.16227 | 33994 ft | 484 kts | 241° |
| 2026-04-23 18:29 | 58.86081 | 20.06102 | 33972 ft | 484 kts | 240° |
| 2026-04-23 18:29 | 58.81880 | 19.95938 | 33939 ft | 484 kts | 240° |
| 2026-04-23 18:30 | 58.77684 | 19.85833 | 34011 ft | 482 kts | 240° |
| 2026-04-23 18:30 | 58.73492 | 19.75786 | 34025 ft | 480 kts | 240° |
| 2026-04-23 18:31 | 58.69340 | 19.65853 | 34022 ft | 480 kts | 240° |
| 2026-04-23 18:31 | 58.65151 | 19.55882 | 33997 ft | 479 kts | 239° |
| 2026-04-23 18:32 | 58.60961 | 19.45950 | 34000 ft | 479 kts | 239° |
| 2026-04-23 18:32 | 58.56762 | 19.36026 | 34010 ft | 479 kts | 239° |
| 2026-04-23 18:33 | 58.52583 | 19.26205 | 34010 ft | 479 kts | 239° |
| 2026-04-23 18:33 | 58.48371 | 19.16360 | 34010 ft | 479 kts | 239° |
| 2026-04-23 18:34 | 58.44148 | 19.06526 | 33997 ft | 479 kts | 239° |
| 2026-04-23 18:34 | 58.39923 | 18.96716 | 34000 ft | 478 kts | 239° |
| 2026-04-23 18:35 | 58.35702 | 18.86961 | 34017 ft | 476 kts | 238° |
| 2026-04-23 18:35 | 58.31514 | 18.77318 | 34034 ft | 476 kts | 238° |
| 2026-04-23 18:36 | 58.27289 | 18.67651 | 34037 ft | 475 kts | 238° |
| 2026-04-23 18:36 | 58.23059 | 18.58006 | 34015 ft | 475 kts | 238° |
| 2026-04-23 18:37 | 58.18831 | 18.48368 | 34019 ft | 475 kts | 238° |
| 2026-04-23 18:37 | 58.14585 | 18.38750 | 34027 ft | 476 kts | 238° |
| 2026-04-23 18:38 | 58.10356 | 18.29214 | 34030 ft | 476 kts | 238° |
| 2026-04-23 18:38 | 58.06098 | 18.19639 | 34036 ft | 476 kts | 238° |
| 2026-04-23 18:39 | 58.01821 | 18.10081 | 34018 ft | 477 kts | 237° |
| 2026-04-23 18:39 | 57.97532 | 18.00535 | 34035 ft | 477 kts | 237° |
| 2026-04-23 18:40 | 57.93236 | 17.90992 | 34038 ft | 478 kts | 237° |
| 2026-04-23 18:40 | 57.88957 | 17.81537 | 34041 ft | 478 kts | 237° |
| 2026-04-23 18:41 | 57.84639 | 17.72042 | 34039 ft | 478 kts | 237° |
| 2026-04-23 18:41 | 57.80316 | 17.62571 | 34031 ft | 478 kts | 237° |
| 2026-04-23 18:42 | 57.75991 | 17.53123 | 34024 ft | 478 kts | 237° |
| 2026-04-23 18:42 | 57.71680 | 17.43756 | 34032 ft | 478 kts | 237° |
| 2026-04-23 18:43 | 57.67334 | 17.34347 | 34038 ft | 478 kts | 237° |
| 2026-04-23 18:43 | 57.62981 | 17.24961 | 34046 ft | 478 kts | 237° |
| 2026-04-23 18:44 | 57.58617 | 17.15585 | 34049 ft | 478 kts | 237° |
| 2026-04-23 18:44 | 57.54275 | 17.06290 | 34023 ft | 480 kts | 236° |
| 2026-04-23 18:45 | 57.49852 | 16.96844 | 34062 ft | 487 kts | 236° |
| 2026-04-23 18:45 | 57.45383 | 16.87353 | 34065 ft | 488 kts | 236° |
| 2026-04-23 18:46 | 57.40899 | 16.77883 | 34065 ft | 489 kts | 236° |
| 2026-04-23 18:46 | 57.36405 | 16.68427 | 34048 ft | 489 kts | 236° |
| 2026-04-23 18:47 | 57.31937 | 16.59062 | 34059 ft | 488 kts | 236° |
| 2026-04-23 18:47 | 57.27436 | 16.49650 | 34071 ft | 488 kts | 236° |
| 2026-04-23 18:48 | 57.22927 | 16.40263 | 34074 ft | 488 kts | 236° |
| 2026-04-23 18:48 | 57.18438 | 16.30969 | 34072 ft | 488 kts | 236° |
| 2026-04-23 18:49 | 57.13915 | 16.21635 | 34049 ft | 488 kts | 235° |
| 2026-04-23 18:49 | 57.09383 | 16.12339 | 34046 ft | 487 kts | 234° |
| 2026-04-23 18:50 | 57.05627 | 16.04647 | 34063 ft | 486 kts | 234° |
| 2026-04-23 18:50 | 57.00346 | 15.93848 | 34073 ft | 486 kts | 234° |
| 2026-04-23 18:51 | 56.95858 | 15.84708 | 34070 ft | 485 kts | 234° |
| 2026-04-23 18:51 | 56.91330 | 15.75555 | 34055 ft | 485 kts | 234° |
| 2026-04-23 18:52 | 56.86790 | 15.66422 | 34060 ft | 485 kts | 234° |
| 2026-04-23 18:52 | 56.82256 | 15.57310 | 34069 ft | 485 kts | 234° |
| 2026-04-23 18:53 | 56.77751 | 15.48289 | 34072 ft | 484 kts | 234° |
| 2026-04-23 18:53 | 56.73199 | 15.39221 | 34074 ft | 485 kts | 234° |
| 2026-04-23 18:54 | 56.68637 | 15.30194 | 34061 ft | 485 kts | 234° |
| 2026-04-23 18:54 | 56.64087 | 15.21188 | 34065 ft | 482 kts | 234° |
| 2026-04-23 18:55 | 56.59551 | 15.12245 | 34085 ft | 481 kts | 233° |
| 2026-04-23 18:55 | 56.55041 | 15.03391 | 34081 ft | 481 kts | 233° |
| 2026-04-23 18:56 | 56.51265 | 14.96001 | 34086 ft | 480 kts | 233° |
| 2026-04-23 18:56 | 56.45955 | 14.85659 | 34073 ft | 480 kts | 233° |
| 2026-04-23 18:57 | 56.41406 | 14.76842 | 34083 ft | 479 kts | 233° |
| 2026-04-23 18:57 | 56.36889 | 14.68106 | 34084 ft | 479 kts | 233° |
| 2026-04-23 18:58 | 56.32340 | 14.59336 | 34098 ft | 479 kts | 233° |
| 2026-04-23 18:58 | 56.27788 | 14.50589 | 34101 ft | 479 kts | 233° |
| 2026-04-23 18:59 | 56.23220 | 14.41862 | 34054 ft | 479 kts | 232° |
| 2026-04-23 18:59 | 56.18654 | 14.33173 | 34085 ft | 479 kts | 232° |
| 2026-04-23 19:00 | 56.14080 | 14.24490 | 34093 ft | 479 kts | 232° |
| 2026-04-23 19:00 | 56.09530 | 14.15890 | 34096 ft | 479 kts | 232° |
| 2026-04-23 19:01 | 56.04943 | 14.07249 | 34098 ft | 479 kts | 232° |
| 2026-04-23 19:01 | 56.00345 | 13.98623 | 34095 ft | 480 kts | 232° |
| 2026-04-23 19:02 | 55.96509 | 13.91457 | 34094 ft | 481 kts | 232° |
| 2026-04-23 19:02 | 55.91124 | 13.81436 | 34097 ft | 482 kts | 232° |
| 2026-04-23 19:03 | 55.86485 | 13.72827 | 34103 ft | 482 kts | 232° |
| 2026-04-23 19:03 | 55.81847 | 13.64221 | 34106 ft | 482 kts | 232° |
| 2026-04-23 19:04 | 55.77196 | 13.55642 | 34098 ft | 481 kts | 231° |
| 2026-04-23 19:04 | 55.72564 | 13.47165 | 34121 ft | 481 kts | 231° |
| 2026-04-23 19:05 | 55.67907 | 13.38663 | 34127 ft | 480 kts | 231° |
| 2026-04-23 19:05 | 55.63254 | 13.30182 | 34126 ft | 480 kts | 231° |
| 2026-04-23 19:06 | 55.58601 | 13.21723 | 34119 ft | 480 kts | 231° |
| 2026-04-23 19:06 | 55.53938 | 13.13297 | 34080 ft | 480 kts | 231° |
| 2026-04-23 19:07 | 55.49296 | 13.04942 | 34115 ft | 480 kts | 231° |
| 2026-04-23 19:07 | 55.44619 | 12.96535 | 34120 ft | 480 kts | 231° |
| 2026-04-23 19:08 | 55.39945 | 12.88149 | 34123 ft | 480 kts | 230° |
| 2026-04-23 19:08 | 55.35253 | 12.79784 | 34102 ft | 480 kts | 230° |
| 2026-04-23 19:09 | 55.30562 | 12.71462 | 34132 ft | 480 kts | 230° |
| 2026-04-23 19:09 | 55.25895 | 12.63207 | 34136 ft | 479 kts | 230° |
| 2026-04-23 19:10 | 55.21207 | 12.54930 | 34139 ft | 478 kts | 230° |
| 2026-04-23 19:10 | 55.16516 | 12.46671 | 34135 ft | 478 kts | 230° |
| 2026-04-23 19:11 | 55.11819 | 12.38436 | 34129 ft | 478 kts | 229° |
| 2026-04-23 19:11 | 55.07111 | 12.30222 | 34135 ft | 478 kts | 229° |
| 2026-04-23 19:12 | 55.03192 | 12.23406 | 34135 ft | 478 kts | 229° |
| 2026-04-23 19:12 | 54.97704 | 12.13916 | 34134 ft | 478 kts | 229° |
| 2026-04-23 19:13 | 54.92986 | 12.05759 | 34114 ft | 478 kts | 229° |
| 2026-04-23 19:13 | 54.88269 | 11.97632 | 34133 ft | 477 kts | 229° |
| 2026-04-23 19:14 | 54.83582 | 11.89601 | 34141 ft | 476 kts | 228° |
| 2026-04-23 19:14 | 54.78868 | 11.81538 | 34148 ft | 476 kts | 229° |
| 2026-04-23 19:15 | 54.74152 | 11.73492 | 34158 ft | 476 kts | 228° |
| 2026-04-23 19:15 | 54.69425 | 11.65467 | 34078 ft | 477 kts | 228° |
| 2026-04-23 19:15 | 54.67049 | 11.61442 | 33332 ft | 478 kts | 228° |
| 2026-04-23 19:16 | 54.64660 | 11.57402 | 32268 ft | 483 kts | 227° |
| 2026-04-23 19:16 | 54.62283 | 11.53394 | 31496 ft | 483 kts | 227° |
| 2026-04-23 19:16 | 54.59883 | 11.49358 | 30903 ft | 481 kts | 227° |
| 2026-04-23 19:17 | 54.55079 | 11.41289 | 29533 ft | 483 kts | 227° |
| 2026-04-23 19:17 | 54.52673 | 11.37257 | 28902 ft | 485 kts | 227° |
| 2026-04-23 19:17 | 54.50253 | 11.33211 | 28263 ft | 483 kts | 227° |
| 2026-04-23 19:17 | 54.47875 | 11.29249 | 27973 ft | 467 kts | 227° |
| 2026-04-23 19:18 | 54.45535 | 11.25466 | 27619 ft | 456 kts | 221° |
| 2026-04-23 19:18 | 54.42970 | 11.22401 | 27470 ft | 443 kts | 218° |
| 2026-04-23 19:18 | 54.40769 | 11.18961 | 27095 ft | 427 kts | 235° |
| 2026-04-23 19:18 | 54.39285 | 11.14592 | 26593 ft | 412 kts | 254° |
| 2026-04-23 19:19 | 54.39047 | 11.05312 | 25530 ft | 388 kts | 291° |
| 2026-04-23 19:19 | 54.39982 | 11.01010 | 24962 ft | 384 kts | 290° |
| 2026-04-23 19:20 | 54.39864 | 10.91912 | 23966 ft | 394 kts | 252° |
| 2026-04-23 19:20 | 54.38471 | 10.87847 | 23417 ft | 400 kts | 233° |
| 2026-04-23 19:20 | 54.36345 | 10.84737 | 22841 ft | 406 kts | 213° |
| 2026-04-23 19:20 | 54.33727 | 10.83024 | 22595 ft | 402 kts | 193° |
| 2026-04-23 19:21 | 54.31032 | 10.82311 | 22459 ft | 391 kts | 190° |
| 2026-04-23 19:21 | 54.25779 | 10.81151 | 22035 ft | 373 kts | 189° |
| 2026-04-23 19:21 | 54.23218 | 10.80577 | 21694 ft | 369 kts | 189° |
| 2026-04-23 19:22 | 54.20690 | 10.80005 | 21305 ft | 366 kts | 189° |
| 2026-04-23 19:22 | 54.18171 | 10.79432 | 20909 ft | 363 kts | 189° |
| 2026-04-23 19:22 | 54.14031 | 10.78486 | 20269 ft | 360 kts | 189° |
| 2026-04-23 19:23 | 54.11552 | 10.77916 | 19900 ft | 358 kts | 189° |
| 2026-04-23 19:23 | 54.09094 | 10.77344 | 19548 ft | 355 kts | 189° |
| 2026-04-23 19:23 | 54.05865 | 10.76589 | 19074 ft | 353 kts | 189° |
| 2026-04-23 19:24 | 54.01023 | 10.75447 | 18365 ft | 349 kts | 189° |
| 2026-04-23 19:24 | 53.98630 | 10.74881 | 18195 ft | 347 kts | 189° |
| 2026-04-23 19:24 | 53.94644 | 10.73943 | 18220 ft | 348 kts | 189° |
| 2026-04-23 19:25 | 53.89859 | 10.72816 | 17878 ft | 346 kts | 189° |
| 2026-04-23 19:25 | 53.84342 | 10.71519 | 16992 ft | 343 kts | 189° |
| 2026-04-23 19:26 | 53.80403 | 10.70595 | 16414 ft | 340 kts | 189° |
| 2026-04-23 19:26 | 53.78094 | 10.70052 | 16077 ft | 339 kts | 189° |
| 2026-04-23 19:27 | 53.73444 | 10.68956 | 15427 ft | 336 kts | 189° |
| 2026-04-23 19:27 | 53.66914 | 10.65239 | 14432 ft | 329 kts | 204° |
| 2026-04-23 19:28 | 53.62687 | 10.62345 | 13783 ft | 327 kts | 205° |
| 2026-04-23 19:28 | 53.58485 | 10.59484 | 13095 ft | 324 kts | 205° |
| 2026-04-23 19:29 | 53.56425 | 10.58091 | 12772 ft | 323 kts | 205° |
| 2026-04-23 19:29 | 53.52280 | 10.55306 | 12100 ft | 319 kts | 204° |
| 2026-04-23 19:30 | 53.48182 | 10.52551 | 11421 ft | 316 kts | 205° |
| 2026-04-23 19:30 | 53.46143 | 10.51191 | 11240 ft | 315 kts | 204° |
| 2026-04-23 19:30 | 53.42063 | 10.48476 | 11247 ft | 316 kts | 204° |
| 2026-04-23 19:31 | 53.40017 | 10.47116 | 11244 ft | 316 kts | 204° |
| 2026-04-23 19:31 | 53.38000 | 10.45776 | 11248 ft | 316 kts | 204° |
| 2026-04-23 19:31 | 53.35956 | 10.44417 | 11247 ft | 316 kts | 204° |
| 2026-04-23 19:31 | 53.33916 | 10.43063 | 11247 ft | 316 kts | 204° |
| 2026-04-23 19:32 | 53.31869 | 10.41710 | 11253 ft | 316 kts | 204° |
| 2026-04-23 19:32 | 53.29824 | 10.40356 | 11250 ft | 316 kts | 204° |
| 2026-04-23 19:32 | 53.27781 | 10.38998 | 11243 ft | 316 kts | 204° |
| 2026-04-23 19:32 | 53.25740 | 10.37637 | 11249 ft | 316 kts | 204° |
| 2026-04-23 19:33 | 53.23704 | 10.36276 | 11252 ft | 316 kts | 204° |
| 2026-04-23 19:33 | 53.21663 | 10.34913 | 11250 ft | 316 kts | 204° |
| 2026-04-23 19:33 | 53.18046 | 10.31141 | 11249 ft | 304 kts | 239° |
| 2026-04-23 19:34 | 53.17214 | 10.27996 | 11245 ft | 293 kts | 265° |
| 2026-04-23 19:34 | 53.17068 | 10.24693 | 11254 ft | 290 kts | 274° |
| 2026-04-23 19:34 | 53.17634 | 10.18219 | 11251 ft | 279 kts | 305° |
| 2026-04-23 19:35 | 53.18883 | 10.15799 | 11253 ft | 275 kts | 324° |
| 2026-04-23 19:35 | 53.20559 | 10.14333 | 11256 ft | 273 kts | 345° |
| 2026-04-23 19:35 | 53.22438 | 10.14005 | 11257 ft | 273 kts | 359° |
| 2026-04-23 19:35 | 53.24342 | 10.13984 | 11258 ft | 274 kts | 359° |
| 2026-04-23 19:36 | 53.26245 | 10.13974 | 11232 ft | 273 kts | 359° |
| 2026-04-23 19:36 | 53.28133 | 10.13964 | 10901 ft | 271 kts | 359° |
| 2026-04-23 19:36 | 53.29990 | 10.13949 | 10571 ft | 269 kts | 359° |
| 2026-04-23 19:36 | 53.31859 | 10.13928 | 10246 ft | 268 kts | 358° |
| 2026-04-23 19:37 | 53.33712 | 10.13905 | 9911 ft | 265 kts | 358° |
| 2026-04-23 19:37 | 53.35551 | 10.13883 | 9550 ft | 263 kts | 358° |
| 2026-04-23 19:37 | 53.37373 | 10.13865 | 9181 ft | 261 kts | 358° |
| 2026-04-23 19:37 | 53.39183 | 10.13848 | 8814 ft | 259 kts | 358° |
| 2026-04-23 19:38 | 53.40978 | 10.13763 | 8445 ft | 257 kts | 355° |
| 2026-04-23 19:38 | 53.42755 | 10.13564 | 8080 ft | 255 kts | 354° |
| 2026-04-23 19:38 | 53.44513 | 10.13324 | 7712 ft | 253 kts | 354° |
| 2026-04-23 19:38 | 53.46239 | 10.13078 | 7339 ft | 251 kts | 354° |
| 2026-04-23 19:39 | 53.47971 | 10.12835 | 7240 ft | 250 kts | 354° |
| 2026-04-23 19:39 | 53.49709 | 10.12596 | 7249 ft | 251 kts | 354° |
| 2026-04-23 19:39 | 53.51452 | 10.12360 | 7249 ft | 251 kts | 354° |
| 2026-04-23 19:39 | 53.53197 | 10.12131 | 7248 ft | 252 kts | 354° |
| 2026-04-23 19:40 | 53.54938 | 10.11906 | 7246 ft | 251 kts | 354° |
| 2026-04-23 19:40 | 53.56684 | 10.11733 | 7249 ft | 252 kts | 0° |
| 2026-04-23 19:40 | 53.58393 | 10.12426 | 7191 ft | 256 kts | 21° |
| 2026-04-23 19:40 | 53.59806 | 10.14263 | 6810 ft | 263 kts | 44° |
| 2026-04-23 19:41 | 53.60971 | 10.16638 | 6385 ft | 263 kts | 45° |
| 2026-04-23 19:41 | 53.62134 | 10.19014 | 5987 ft | 262 kts | 44° |
| 2026-04-23 19:41 | 53.63251 | 10.21293 | 5840 ft | 250 kts | 44° |
| 2026-04-23 19:41 | 53.64335 | 10.23500 | 5719 ft | 239 kts | 44° |
| 2026-04-23 19:42 | 53.65371 | 10.25606 | 5543 ft | 230 kts | 43° |
| 2026-04-23 19:42 | 53.66387 | 10.27661 | 5262 ft | 227 kts | 43° |
| 2026-04-23 19:42 | 53.67393 | 10.29689 | 5040 ft | 224 kts | 43° |
| 2026-04-23 19:42 | 53.68398 | 10.31711 | 4991 ft | 226 kts | 43° |
| 2026-04-23 19:43 | 53.69409 | 10.33745 | 4997 ft | 226 kts | 43° |
| 2026-04-23 19:43 | 53.70419 | 10.35784 | 4979 ft | 226 kts | 43° |
| 2026-04-23 19:43 | 53.71421 | 10.37813 | 4668 ft | 224 kts | 43° |
| 2026-04-23 19:43 | 53.72421 | 10.39835 | 4311 ft | 224 kts | 43° |
| 2026-04-23 19:44 | 53.73586 | 10.41421 | 3996 ft | 210 kts | 15° |
| 2026-04-23 19:44 | 53.74983 | 10.41587 | 3666 ft | 200 kts | 342° |
| 2026-04-23 19:44 | 53.76103 | 10.40324 | 3337 ft | 202 kts | 309° |
| 2026-04-23 19:44 | 53.76555 | 10.38060 | 3037 ft | 212 kts | 275° |
| 2026-04-23 19:45 | 53.76359 | 10.35551 | 2996 ft | 220 kts | 266° |
| 2026-04-23 19:45 | 53.76042 | 10.33007 | 2996 ft | 222 kts | 265° |
| 2026-04-23 19:45 | 53.75706 | 10.30462 | 3003 ft | 222 kts | 264° |
| 2026-04-23 19:45 | 53.75363 | 10.27912 | 3007 ft | 223 kts | 264° |
| 2026-04-23 19:46 | 53.75016 | 10.25352 | 3005 ft | 223 kts | 264° |
| 2026-04-23 19:46 | 53.74632 | 10.22803 | 3004 ft | 225 kts | 255° |
| 2026-04-23 19:46 | 53.73764 | 10.20629 | 3005 ft | 223 kts | 238° |
| 2026-04-23 19:46 | 53.72776 | 10.18634 | 2874 ft | 220 kts | 238° |
| 2026-04-23 19:47 | 53.71800 | 10.16650 | 2618 ft | 220 kts | 238° |
| 2026-04-23 19:47 | 53.70832 | 10.14675 | 2330 ft | 222 kts | 238° |
| 2026-04-23 19:47 | 53.69858 | 10.12692 | 2034 ft | 217 kts | 238° |
| 2026-04-23 19:47 | 53.68909 | 10.10761 | 1735 ft | 211 kts | 237° |
| 2026-04-23 19:48 | 53.68005 | 10.08928 | 1461 ft | 193 kts | 238° |
| 2026-04-23 19:48 | 53.67184 | 10.07262 | 1208 ft | 176 kts | 237° |
| 2026-04-23 19:48 | 53.66444 | 10.05761 | 992 ft | 156 kts | 238° |
| 2026-04-23 19:48 | 53.65784 | 10.04411 | 751 ft | 142 kts | 238° |
| 2026-04-23 19:49 | 53.65181 | 10.03178 | 575 ft | 133 kts | 237° |
| 2026-04-23 19:49 | 53.64593 | 10.01985 | 406 ft | 132 kts | 239° |
| 2026-04-23 19:49 | 53.64017 | 10.00815 | 235 ft | 132 kts | 234° |
| 2026-04-23 19:49 | 53.63429 | 9.99629 | 58 ft | 132 kts | 235° |
| 2026-04-23 19:50 | 53.62958 | 9.98664 | 45 ft | 53 kts | 229° |
| 2026-04-23 19:50 | 53.62802 | 9.98486 | 44 ft | 22 kts | 194° |
| 2026-04-23 19:50 | 53.62722 | 9.98474 | 46 ft | 12 kts | 168° |
| 2026-04-23 19:50 | 53.62720 | 9.98620 | 47 ft | 16 kts | 45° |
| 2026-04-23 19:51 | 53.62774 | 9.98721 | 47 ft | 10 kts | 50° |
| 2026-04-23 19:51 | 53.62815 | 9.98807 | 47 ft | 9 kts | 51° |
| 2026-04-23 19:51 | 53.62852 | 9.98881 | 47 ft | 9 kts | 50° |
| 2026-04-23 19:51 | 53.62914 | 9.99006 | 47 ft | 16 kts | 50° |
| 2026-04-23 19:52 | 53.62979 | 9.99138 | 47 ft | 14 kts | 50° |
| 2026-04-23 19:52 | 53.63039 | 9.99258 | 47 ft | 13 kts | 50° |
| 2026-04-23 19:52 | 53.63062 | 9.99311 | 47 ft | 0 kts | 55° |
| 2026-04-23 19:52 | 53.63062 | 9.99312 | 47 ft | 1 kts | 55° |
| 2026-04-23 19:53 | 53.63083 | 9.99363 | 47 ft | 0 kts | 56° |
| 2026-04-23 19:55 | 53.63087 | 9.99373 | 44 ft | 7 kts | 56° |
| 2026-04-23 19:55 | 53.63166 | 9.99553 | 46 ft | 17 kts | 52° |
| 2026-04-23 19:55 | 53.63237 | 9.99697 | 48 ft | 15 kts | 46° |
| 2026-04-23 19:56 | 53.63305 | 9.99815 | 48 ft | 13 kts | 50° |
| 2026-04-23 19:56 | 53.63361 | 9.99929 | 48 ft | 12 kts | 51° |
| 2026-04-23 19:56 | 53.63412 | 10.00031 | 48 ft | 11 kts | 49° |
| 2026-04-23 19:56 | 53.63457 | 10.00121 | 48 ft | 10 kts | 51° |
| 2026-04-23 19:57 | 53.63441 | 10.00156 | 48 ft | 5 kts | 173° |
| 2026-04-23 19:57 | 53.63357 | 10.00162 | 47 ft | 14 kts | 175° |
| 2026-04-23 19:57 | 53.63265 | 10.00173 | 48 ft | 12 kts | 176° |
| 2026-04-23 19:57 | 53.63184 | 10.00183 | 48 ft | 11 kts | 176° |
| 2026-04-23 19:58 | 53.63123 | 10.00196 | 48 ft | 5 kts | 160° |
| 2026-04-23 19:58 | 53.63109 | 10.00290 | 48 ft | 8 kts | 88° |
| 2026-04-23 19:58 | 53.63111 | 10.00358 | 48 ft | 0 kts | 87° |
| 2026-04-23 19:58 | 53.63111 | 10.00367 | 48 ft | 0 kts | 87° |